Terminal Aerodrome Forecast
Issued by NWS

Home | Current Version | Previous Version | Text Only | Print | Product List | Glossary On
Versions: 1 2 3 4 5 6 7 8 9 10 11 12 13 14 15 16 17 18
214
FTUS43 KLSX 221329 AAA
TAFSUS
TAF AMD
KSUS 221329Z 2213/2312 25010KT P6SM SCT120
     FM221430 04012G20KT P6SM SCT120
     FM221900 25010KT P6SM SCT120
     FM230300 25004KT P6SM VCTS SCT200CB
     FM230600 25004KT P6SM SCT200=

USA.gov is the U.S. government's official web portal to all federal, state and local government web resources and services.